sensor_id;sensor_type;location;lat;lon;timestamp;P1;durP1;ratioP1;P2;durP2;ratioP2
30000;SDS011;16845;48.670;9.000;2023-07-13T05:24:13;4.28;;;2.63;;
30000;SDS011;16845;48.670;9.000;2023-07-13T05:26:51;2.20;;;1.52;;
30000;SDS011;16845;48.670;9.000;2023-07-13T05:29:17;6.50;;;1.73;;
30000;SDS011;16845;48.670;9.000;2023-07-13T05:31:44;3.88;;;1.80;;
30000;SDS011;16845;48.670;9.000;2023-07-13T05:34:10;6.33;;;1.73;;
30000;SDS011;16845;48.670;9.000;2023-07-13T05:36:37;6.15;;;2.42;;
30000;SDS011;16845;48.670;9.000;2023-07-13T05:39:03;7.55;;;2.10;;
30000;SDS011;16845;48.670;9.000;2023-07-13T05:41:32;5.72;;;1.90;;
30000;SDS011;16845;48.670;9.000;2023-07-13T05:43:58;5.18;;;1.73;;
30000;SDS011;16845;48.670;9.000;2023-07-13T05:46:25;4.47;;;1.75;;
30000;SDS011;16845;48.670;9.000;2023-07-13T05:48:51;4.55;;;1.92;;
30000;SDS011;16845;48.670;9.000;2023-07-13T05:51:18;4.05;;;1.65;;
30000;SDS011;16845;48.670;9.000;2023-07-13T05:53:44;6.15;;;1.77;;
30000;SDS011;16845;48.670;9.000;2023-07-13T05:56:11;4.43;;;1.98;;
30000;SDS011;16845;48.670;9.000;2023-07-13T05:58:39;4.05;;;1.50;;
30000;SDS011;16845;48.670;9.000;2023-07-13T06:01:06;5.68;;;1.90;;
30000;SDS011;16845;48.670;9.000;2023-07-13T06:03:35;9.40;;;2.10;;
30000;SDS011;16845;48.670;9.000;2023-07-13T06:06:01;6.53;;;1.67;;
30000;SDS011;16845;48.670;9.000;2023-07-13T06:08:28;9.02;;;1.83;;
30000;SDS011;16845;48.670;9.000;2023-07-13T06:10:58;7.57;;;2.20;;
30000;SDS011;16845;48.670;9.000;2023-07-13T06:13:28;5.55;;;2.42;;
30000;SDS011;16845;48.670;9.000;2023-07-13T06:15:56;3.10;;;1.70;;
30000;SDS011;16845;48.670;9.000;2023-07-13T06:18:22;5.82;;;1.90;;
30000;SDS011;16845;48.670;9.000;2023-07-13T06:20:49;4.97;;;1.90;;
30000;SDS011;16845;48.670;9.000;2023-07-13T06:23:15;5.28;;;1.67;;
30000;SDS011;16845;48.670;9.000;2023-07-13T06:25:42;3.33;;;1.80;;
30000;SDS011;16845;48.670;9.000;2023-07-13T06:28:09;4.07;;;1.77;;
30000;SDS011;16845;48.670;9.000;2023-07-13T06:30:37;4.00;;;1.77;;
30000;SDS011;16845;48.670;9.000;2023-07-13T06:33:05;6.50;;;1.40;;
30000;SDS011;16845;48.670;9.000;2023-07-13T06:35:32;4.43;;;1.60;;
30000;SDS011;16845;48.670;9.000;2023-07-13T06:37:59;3.93;;;1.60;;
30000;SDS011;16845;48.670;9.000;2023-07-13T06:40:26;2.13;;;1.60;;
30000;SDS011;16845;48.670;9.000;2023-07-13T06:42:52;4.95;;;2.15;;
30000;SDS011;16845;48.670;9.000;2023-07-13T06:45:19;3.50;;;1.60;;
30000;SDS011;16845;48.670;9.000;2023-07-13T06:47:45;5.20;;;2.03;;
30000;SDS011;16845;48.670;9.000;2023-07-13T06:50:13;2.97;;;1.67;;
30000;SDS011;16845;48.670;9.000;2023-07-13T06:52:40;6.68;;;1.77;;
30000;SDS011;16845;48.670;9.000;2023-07-13T06:55:07;3.30;;;1.55;;
30000;SDS011;16845;48.670;9.000;2023-07-13T07:00:00;4.10;;;1.50;;
30000;SDS011;16845;48.670;9.000;2023-07-13T07:02:27;10.30;;;1.70;;
30000;SDS011;16845;48.670;9.000;2023-07-13T07:04:53;4.07;;;1.73;;
30000;SDS011;16845;48.670;9.000;2023-07-13T07:07:23;2.00;;;1.27;;
30000;SDS011;16845;48.670;9.000;2023-07-13T07:09:50;9.02;;;1.67;;
30000;SDS011;16845;48.670;9.000;2023-07-13T07:12:16;3.87;;;1.23;;
30000;SDS011;16845;48.670;9.000;2023-07-13T07:14:43;2.63;;;1.42;;
30000;SDS011;16845;48.670;9.000;2023-07-13T07:17:09;3.88;;;1.63;;
30000;SDS011;16845;48.670;9.000;2023-07-13T07:19:37;1.60;;;1.47;;
30000;SDS011;16845;48.670;9.000;2023-07-13T07:22:03;5.13;;;1.55;;
30000;SDS011;16845;48.670;9.000;2023-07-13T07:24:31;2.70;;;1.20;;
30000;SDS011;16845;48.670;9.000;2023-07-13T07:26:58;7.03;;;1.42;;
30000;SDS011;16845;48.670;9.000;2023-07-13T07:29:27;4.13;;;1.70;;
30000;SDS011;16845;48.670;9.000;2023-07-13T07:31:58;2.83;;;1.48;;
30000;SDS011;16845;48.670;9.000;2023-07-13T07:34:44;3.70;;;1.50;;
30000;SDS011;16845;48.670;9.000;2023-07-13T07:37:11;1.67;;;1.10;;
30000;SDS011;16845;48.670;9.000;2023-07-13T07:39:43;2.55;;;1.20;;
30000;SDS011;16845;48.670;9.000;2023-07-13T07:42:14;4.45;;;1.17;;
30000;SDS011;16845;48.670;9.000;2023-07-13T07:44:41;3.58;;;1.17;;
30000;SDS011;16845;48.670;9.000;2023-07-13T07:47:07;4.38;;;1.55;;
30000;SDS011;16845;48.670;9.000;2023-07-13T07:49:34;4.57;;;1.45;;
30000;SDS011;16845;48.670;9.000;2023-07-13T07:52:01;5.40;;;1.88;;
30000;SDS011;16845;48.670;9.000;2023-07-13T07:54:28;5.07;;;1.17;;
30000;SDS011;16845;48.670;9.000;2023-07-13T07:57:16;7.22;;;1.17;;
30000;SDS011;16845;48.670;9.000;2023-07-13T08:00:02;3.30;;;1.23;;
30000;SDS011;16845;48.670;9.000;2023-07-13T08:02:32;4.88;;;1.27;;
30000;SDS011;16845;48.670;9.000;2023-07-13T08:05:02;3.88;;;1.77;;
30000;SDS011;16845;48.670;9.000;2023-07-13T08:07:31;7.18;;;1.25;;
30000;SDS011;16845;48.670;9.000;2023-07-13T08:09:58;2.45;;;1.17;;
30000;SDS011;16845;48.670;9.000;2023-07-13T08:12:26;3.50;;;1.23;;
30000;SDS011;16845;48.670;9.000;2023-07-13T08:14:55;2.45;;;1.23;;
30000;SDS011;16845;48.670;9.000;2023-07-13T08:17:22;1.73;;;1.23;;
30000;SDS011;16845;48.670;9.000;2023-07-13T08:19:49;4.60;;;1.05;;
30000;SDS011;16845;48.670;9.000;2023-07-13T08:22:16;2.22;;;1.15;;
30000;SDS011;16845;48.670;9.000;2023-07-13T08:24:43;3.08;;;1.23;;
30000;SDS011;16845;48.670;9.000;2023-07-13T08:27:09;4.13;;;1.38;;
30000;SDS011;16845;48.670;9.000;2023-07-13T08:29:37;5.43;;;1.50;;
30000;SDS011;16845;48.670;9.000;2023-07-13T08:32:05;10.10;;;1.83;;
30000;SDS011;16845;48.670;9.000;2023-07-13T08:34:33;4.45;;;1.60;;
30000;SDS011;16845;48.670;9.000;2023-07-13T08:36:59;2.80;;;1.27;;
30000;SDS011;16845;48.670;9.000;2023-07-13T08:39:26;7.15;;;1.10;;
30000;SDS011;16845;48.670;9.000;2023-07-13T08:41:53;3.55;;;1.42;;
30000;SDS011;16845;48.670;9.000;2023-07-13T08:44:27;4.28;;;1.10;;
30000;SDS011;16845;48.670;9.000;2023-07-13T08:47:04;4.85;;;1.58;;
30000;SDS011;16845;48.670;9.000;2023-07-13T08:49:32;5.32;;;1.60;;
30000;SDS011;16845;48.670;9.000;2023-07-13T08:52:00;3.30;;;0.90;;
30000;SDS011;16845;48.670;9.000;2023-07-13T08:54:32;20.77;;;3.17;;
30000;SDS011;16845;48.670;9.000;2023-07-13T08:57:03;2.92;;;1.25;;
30000;SDS011;16845;48.670;9.000;2023-07-13T08:59:40;2.65;;;1.30;;
30000;SDS011;16845;48.670;9.000;2023-07-13T09:02:20;4.63;;;1.15;;
30000;SDS011;16845;48.670;9.000;2023-07-13T09:04:53;2.55;;;1.33;;
30000;SDS011;16845;48.670;9.000;2023-07-13T09:07:25;4.55;;;1.15;;
30000;SDS011;16845;48.670;9.000;2023-07-13T09:10:02;2.03;;;1.00;;
30000;SDS011;16845;48.670;9.000;2023-07-13T09:12:36;4.82;;;1.27;;
30000;SDS011;16845;48.670;9.000;2023-07-13T09:15:17;3.85;;;1.65;;
30000;SDS011;16845;48.670;9.000;2023-07-13T09:17:53;2.95;;;1.20;;
30000;SDS011;16845;48.670;9.000;2023-07-13T09:20:24;5.50;;;1.20;;
30000;SDS011;16845;48.670;9.000;2023-07-13T09:22:53;2.80;;;1.20;;
30000;SDS011;16845;48.670;9.000;2023-07-13T09:25:23;4.25;;;0.98;;
30000;SDS011;16845;48.670;9.000;2023-07-13T09:27:53;5.47;;;1.05;;
30000;SDS011;16845;48.670;9.000;2023-07-13T09:30:24;5.32;;;1.60;;
30000;SDS011;16845;48.670;9.000;2023-07-13T09:32:59;2.65;;;1.55;;
30000;SDS011;16845;48.670;9.000;2023-07-13T09:35:31;2.92;;;0.90;;
30000;SDS011;16845;48.670;9.000;2023-07-13T09:37:58;3.90;;;1.23;;
30000;SDS011;16845;48.670;9.000;2023-07-13T09:40:30;1.92;;;1.05;;
30000;SDS011;16845;48.670;9.000;2023-07-13T09:43:01;6.25;;;1.30;;
30000;SDS011;16845;48.670;9.000;2023-07-13T09:45:29;3.47;;;1.27;;
30000;SDS011;16845;48.670;9.000;2023-07-13T09:48:03;3.92;;;1.35;;
30000;SDS011;16845;48.670;9.000;2023-07-13T09:50:31;4.50;;;1.00;;
30000;SDS011;16845;48.670;9.000;2023-07-13T09:52:58;5.03;;;1.77;;
30000;SDS011;16845;48.670;9.000;2023-07-13T09:55:29;3.88;;;1.23;;
30000;SDS011;16845;48.670;9.000;2023-07-13T09:57:57;3.17;;;1.20;;
30000;SDS011;16845;48.670;9.000;2023-07-13T10:00:29;2.17;;;1.30;;
30000;SDS011;16845;48.670;9.000;2023-07-13T10:03:01;1.10;;;0.95;;
30000;SDS011;16845;48.670;9.000;2023-07-13T10:05:36;5.70;;;1.20;;
30000;SDS011;16845;48.670;9.000;2023-07-13T10:08:04;4.95;;;1.73;;
30000;SDS011;16845;48.670;9.000;2023-07-13T10:10:31;4.63;;;1.52;;
30000;SDS011;16845;48.670;9.000;2023-07-13T10:12:57;3.15;;;1.30;;
30000;SDS011;16845;48.670;9.000;2023-07-13T10:15:24;2.95;;;1.05;;
30000;SDS011;16845;48.670;9.000;2023-07-13T10:17:52;4.50;;;1.80;;
30000;SDS011;16845;48.670;9.000;2023-07-13T10:20:23;6.90;;;1.50;;
30000;SDS011;16845;48.670;9.000;2023-07-13T10:22:54;8.52;;;1.35;;
30000;SDS011;16845;48.670;9.000;2023-07-13T10:25:26;2.53;;;0.90;;
30000;SDS011;16845;48.670;9.000;2023-07-13T10:27:58;5.25;;;1.10;;
30000;SDS011;16845;48.670;9.000;2023-07-13T10:30:29;2.45;;;1.30;;
30000;SDS011;16845;48.670;9.000;2023-07-13T10:33:01;5.72;;;1.70;;
30000;SDS011;16845;48.670;9.000;2023-07-13T10:35:31;6.35;;;2.05;;
30000;SDS011;16845;48.670;9.000;2023-07-13T10:37:58;3.53;;;1.08;;
30000;SDS011;16845;48.670;9.000;2023-07-13T10:40:30;2.08;;;1.00;;
30000;SDS011;16845;48.670;9.000;2023-07-13T10:43:02;4.20;;;1.10;;
30000;SDS011;16845;48.670;9.000;2023-07-13T10:45:33;8.00;;;1.52;;
30000;SDS011;16845;48.670;9.000;2023-07-13T10:48:02;10.57;;;1.20;;
30000;SDS011;16845;48.670;9.000;2023-07-13T10:50:32;3.05;;;1.00;;
30000;SDS011;16845;48.670;9.000;2023-07-13T10:53:01;4.97;;;1.40;;
30000;SDS011;16845;48.670;9.000;2023-07-13T10:55:33;6.65;;;1.48;;
30000;SDS011;16845;48.670;9.000;2023-07-13T10:58:13;4.15;;;1.45;;
30000;SDS011;16845;48.670;9.000;2023-07-13T11:00:46;4.20;;;1.20;;
30000;SDS011;16845;48.670;9.000;2023-07-13T11:03:15;4.13;;;1.10;;
30000;SDS011;16845;48.670;9.000;2023-07-13T11:05:49;5.30;;;1.60;;
30000;SDS011;16845;48.670;9.000;2023-07-13T11:08:20;2.88;;;1.00;;
30000;SDS011;16845;48.670;9.000;2023-07-13T11:11:03;4.78;;;1.33;;
30000;SDS011;16845;48.670;9.000;2023-07-13T11:16:12;5.20;;;1.30;;
30000;SDS011;16845;48.670;9.000;2023-07-13T11:18:39;4.05;;;1.52;;
30000;SDS011;16845;48.670;9.000;2023-07-13T11:21:14;8.93;;;2.55;;
30000;SDS011;16845;48.670;9.000;2023-07-13T11:24:01;2.58;;;1.05;;
30000;SDS011;16845;48.670;9.000;2023-07-13T11:26:38;5.78;;;1.23;;
30000;SDS011;16845;48.670;9.000;2023-07-13T11:29:08;4.22;;;1.48;;
30000;SDS011;16845;48.670;9.000;2023-07-13T11:31:35;9.93;;;1.33;;
30000;SDS011;16845;48.670;9.000;2023-07-13T11:34:02;3.10;;;1.52;;
30000;SDS011;16845;48.670;9.000;2023-07-13T11:36:31;4.03;;;1.38;;
30000;SDS011;16845;48.670;9.000;2023-07-13T11:39:04;4.43;;;1.40;;
30000;SDS011;16845;48.670;9.000;2023-07-13T11:41:43;2.92;;;1.05;;
30000;SDS011;16845;48.670;9.000;2023-07-13T11:44:12;6.13;;;2.05;;
30000;SDS011;16845;48.670;9.000;2023-07-13T11:46:44;2.63;;;1.30;;
30000;SDS011;16845;48.670;9.000;2023-07-13T11:49:13;5.25;;;1.10;;
30000;SDS011;16845;48.670;9.000;2023-07-13T11:51:43;5.57;;;1.23;;
30000;SDS011;16845;48.670;9.000;2023-07-13T11:54:14;5.32;;;1.20;;
30000;SDS011;16845;48.670;9.000;2023-07-13T11:56:47;5.30;;;1.30;;
30000;SDS011;16845;48.670;9.000;2023-07-13T12:01:42;8.27;;;1.30;;
30000;SDS011;16845;48.670;9.000;2023-07-13T12:04:19;3.55;;;1.00;;
30000;SDS011;16845;48.670;9.000;2023-07-13T12:06:54;7.63;;;1.20;;
30000;SDS011;16845;48.670;9.000;2023-07-13T12:09:21;1.13;;;0.80;;
30000;SDS011;16845;48.670;9.000;2023-07-13T12:11:48;5.28;;;1.17;;
30000;SDS011;16845;48.670;9.000;2023-07-13T12:14:14;4.75;;;1.42;;
30000;SDS011;16845;48.670;9.000;2023-07-13T12:16:42;3.58;;;1.42;;
30000;SDS011;16845;48.670;9.000;2023-07-13T12:19:16;4.95;;;0.95;;
30000;SDS011;16845;48.670;9.000;2023-07-13T12:21:45;5.65;;;1.60;;
30000;SDS011;16845;48.670;9.000;2023-07-13T12:24:15;7.22;;;1.35;;
30000;SDS011;16845;48.670;9.000;2023-07-13T12:26:43;3.67;;;1.17;;
30000;SDS011;16845;48.670;9.000;2023-07-13T12:29:11;3.78;;;1.27;;
30000;SDS011;16845;48.670;9.000;2023-07-13T12:31:43;1.55;;;0.90;;
30000;SDS011;16845;48.670;9.000;2023-07-13T12:34:11;5.45;;;1.40;;
30000;SDS011;16845;48.670;9.000;2023-07-13T12:36:40;5.40;;;1.58;;
30000;SDS011;16845;48.670;9.000;2023-07-13T12:39:12;5.75;;;1.40;;
30000;SDS011;16845;48.670;9.000;2023-07-13T12:41:42;1.50;;;1.00;;
30000;SDS011;16845;48.670;9.000;2023-07-13T12:44:12;7.63;;;1.55;;
30000;SDS011;16845;48.670;9.000;2023-07-13T12:46:50;2.78;;;1.30;;
30000;SDS011;16845;48.670;9.000;2023-07-13T12:49:19;5.22;;;1.50;;
30000;SDS011;16845;48.670;9.000;2023-07-13T12:51:50;5.38;;;1.23;;
30000;SDS011;16845;48.670;9.000;2023-07-13T12:54:22;2.67;;;1.23;;
30000;SDS011;16845;48.670;9.000;2023-07-13T12:56:49;5.93;;;1.45;;
30000;SDS011;16845;48.670;9.000;2023-07-13T12:59:18;7.03;;;1.40;;
30000;SDS011;16845;48.670;9.000;2023-07-13T13:01:46;4.78;;;1.50;;
30000;SDS011;16845;48.670;9.000;2023-07-13T13:04:13;8.82;;;1.20;;
30000;SDS011;16845;48.670;9.000;2023-07-13T13:06:40;5.35;;;1.75;;
30000;SDS011;16845;48.670;9.000;2023-07-13T13:09:09;8.63;;;1.70;;
30000;SDS011;16845;48.670;9.000;2023-07-13T13:11:39;2.70;;;1.45;;
30000;SDS011;16845;48.670;9.000;2023-07-13T13:14:06;5.13;;;1.17;;
30000;SDS011;16845;48.670;9.000;2023-07-13T13:16:33;3.40;;;1.48;;
30000;SDS011;16845;48.670;9.000;2023-07-13T13:19:08;1.60;;;1.17;;
30000;SDS011;16845;48.670;9.000;2023-07-13T13:21:39;4.38;;;1.45;;
30000;SDS011;16845;48.670;9.000;2023-07-13T13:26:36;3.15;;;1.35;;
30000;SDS011;16845;48.670;9.000;2023-07-13T13:29:08;2.33;;;1.38;;
30000;SDS011;16845;48.670;9.000;2023-07-13T13:31:38;2.53;;;1.02;;
30000;SDS011;16845;48.670;9.000;2023-07-13T13:34:04;4.22;;;1.20;;
30000;SDS011;16845;48.670;9.000;2023-07-13T13:36:35;4.78;;;1.40;;
30000;SDS011;16845;48.670;9.000;2023-07-13T13:41:28;1.17;;;0.98;;
30000;SDS011;16845;48.670;9.000;2023-07-13T13:43:54;2.90;;;1.23;;
30000;SDS011;16845;48.670;9.000;2023-07-13T13:46:23;8.45;;;1.42;;
30000;SDS011;16845;48.670;9.000;2023-07-13T13:48:51;5.05;;;1.10;;
30000;SDS011;16845;48.670;9.000;2023-07-13T13:53:45;3.97;;;1.30;;
30000;SDS011;16845;48.670;9.000;2023-07-13T13:56:12;3.20;;;1.10;;
30000;SDS011;16845;48.670;9.000;2023-07-13T13:58:40;3.40;;;1.10;;
30000;SDS011;16845;48.670;9.000;2023-07-13T14:03:39;4.38;;;1.48;;
30000;SDS011;16845;48.670;9.000;2023-07-13T14:06:07;4.60;;;1.80;;
30000;SDS011;16845;48.670;9.000;2023-07-13T14:08:35;3.17;;;1.80;;
30000;SDS011;16845;48.670;9.000;2023-07-13T14:11:02;3.47;;;1.20;;
30000;SDS011;16845;48.670;9.000;2023-07-13T14:13:30;7.95;;;1.42;;
30000;SDS011;16845;48.670;9.000;2023-07-13T14:16:02;2.80;;;1.27;;
30000;SDS011;16845;48.670;9.000;2023-07-13T14:18:29;5.90;;;1.58;;
30000;SDS011;16845;48.670;9.000;2023-07-13T14:20:57;3.40;;;1.08;;
30000;SDS011;16845;48.670;9.000;2023-07-13T14:23:23;3.17;;;1.10;;
30000;SDS011;16845;48.670;9.000;2023-07-13T14:25:50;4.65;;;1.38;;
30000;SDS011;16845;48.670;9.000;2023-07-13T14:28:21;5.30;;;1.30;;
30000;SDS011;16845;48.670;9.000;2023-07-13T14:30:49;4.13;;;2.20;;
30000;SDS011;16845;48.670;9.000;2023-07-13T14:33:16;3.17;;;1.30;;
30000;SDS011;16845;48.670;9.000;2023-07-13T14:35:43;3.38;;;1.42;;
30000;SDS011;16845;48.670;9.000;2023-07-13T14:38:11;3.03;;;1.30;;
30000;SDS011;16845;48.670;9.000;2023-07-13T14:40:41;4.93;;;1.50;;
30000;SDS011;16845;48.670;9.000;2023-07-13T14:43:09;3.40;;;1.83;;
30000;SDS011;16845;48.670;9.000;2023-07-13T14:45:38;9.30;;;1.40;;
30000;SDS011;16845;48.670;9.000;2023-07-13T14:48:09;1.67;;;1.00;;
30000;SDS011;16845;48.670;9.000;2023-07-13T14:50:39;5.68;;;1.38;;
30000;SDS011;16845;48.670;9.000;2023-07-13T14:53:08;6.03;;;1.60;;
30000;SDS011;16845;48.670;9.000;2023-07-13T14:55:37;8.27;;;1.50;;
30000;SDS011;16845;48.670;9.000;2023-07-13T14:58:03;4.80;;;1.23;;
30000;SDS011;16845;48.670;9.000;2023-07-13T15:00:30;3.05;;;1.10;;
30000;SDS011;16845;48.670;9.000;2023-07-13T15:02:57;4.20;;;1.23;;
30000;SDS011;16845;48.670;9.000;2023-07-13T15:05:26;5.88;;;1.77;;
30000;SDS011;16845;48.670;9.000;2023-07-13T15:07:56;2.88;;;1.45;;
30000;SDS011;16845;48.670;9.000;2023-07-13T15:10:26;2.85;;;1.27;;
30000;SDS011;16845;48.670;9.000;2023-07-13T15:12:56;10.05;;;1.38;;
30000;SDS011;16845;48.670;9.000;2023-07-13T15:15:24;2.53;;;1.40;;
30000;SDS011;16845;48.670;9.000;2023-07-13T15:17:51;2.70;;;1.23;;
30000;SDS011;16845;48.670;9.000;2023-07-13T15:20:18;1.70;;;1.05;;
30000;SDS011;16845;48.670;9.000;2023-07-13T15:22:47;8.02;;;1.30;;
30000;SDS011;16845;48.670;9.000;2023-07-13T15:25:16;5.05;;;1.58;;
30000;SDS011;16845;48.670;9.000;2023-07-13T15:27:45;4.47;;;1.23;;
30000;SDS011;16845;48.670;9.000;2023-07-13T15:30:13;3.45;;;1.20;;
30000;SDS011;16845;48.670;9.000;2023-07-13T15:32:41;1.63;;;1.30;;
30000;SDS011;16845;48.670;9.000;2023-07-13T15:35:12;2.08;;;1.63;;
30000;SDS011;16845;48.670;9.000;2023-07-13T15:37:40;4.75;;;1.92;;
30000;SDS011;16845;48.670;9.000;2023-07-13T15:40:07;5.00;;;1.30;;
30000;SDS011;16845;48.670;9.000;2023-07-13T15:42:34;6.88;;;1.80;;
30000;SDS011;16845;48.670;9.000;2023-07-13T15:45:02;3.22;;;1.33;;
30000;SDS011;16845;48.670;9.000;2023-07-13T15:47:29;4.25;;;1.42;;
30000;SDS011;16845;48.670;9.000;2023-07-13T15:49:56;5.27;;;1.43;;
30000;SDS011;16845;48.670;9.000;2023-07-13T15:52:23;8.00;;;1.80;;
30000;SDS011;16845;48.670;9.000;2023-07-13T15:57:16;2.72;;;1.45;;
30000;SDS011;16845;48.670;9.000;2023-07-13T15:59:43;2.65;;;1.17;;
30000;SDS011;16845;48.670;9.000;2023-07-13T16:02:16;2.93;;;1.30;;
30000;SDS011;16845;48.670;9.000;2023-07-13T16:04:44;3.50;;;1.30;;
30000;SDS011;16845;48.670;9.000;2023-07-13T16:07:11;4.68;;;1.60;;
30000;SDS011;16845;48.670;9.000;2023-07-13T16:09:39;2.75;;;1.13;;
30000;SDS011;16845;48.670;9.000;2023-07-13T16:12:09;6.63;;;1.67;;
30000;SDS011;16845;48.670;9.000;2023-07-13T16:14:36;6.72;;;1.42;;
30000;SDS011;16845;48.670;9.000;2023-07-13T16:17:03;7.53;;;1.83;;
30000;SDS011;16845;48.670;9.000;2023-07-13T16:19:31;7.07;;;1.40;;
30000;SDS011;16845;48.670;9.000;2023-07-13T16:21:58;4.78;;;1.65;;
30000;SDS011;16845;48.670;9.000;2023-07-13T16:24:25;3.35;;;1.35;;
30000;SDS011;16845;48.670;9.000;2023-07-13T16:26:51;1.77;;;1.20;;
30000;SDS011;16845;48.670;9.000;2023-07-13T16:29:19;3.80;;;1.70;;
30000;SDS011;16845;48.670;9.000;2023-07-13T16:31:55;3.05;;;1.45;;
30000;SDS011;16845;48.670;9.000;2023-07-13T16:34:22;2.85;;;1.33;;
30000;SDS011;16845;48.670;9.000;2023-07-13T16:36:51;2.83;;;1.33;;
30000;SDS011;16845;48.670;9.000;2023-07-13T16:39:18;3.50;;;1.48;;
30000;SDS011;16845;48.670;9.000;2023-07-13T16:41:44;9.93;;;1.90;;
30000;SDS011;16845;48.670;9.000;2023-07-13T16:44:11;10.13;;;2.53;;
30000;SDS011;16845;48.670;9.000;2023-07-13T16:46:39;4.05;;;1.38;;
30000;SDS011;16845;48.670;9.000;2023-07-13T16:49:09;2.55;;;1.30;;
30000;SDS011;16845;48.670;9.000;2023-07-13T16:51:46;4.95;;;1.38;;
30000;SDS011;16845;48.670;9.000;2023-07-13T16:54:14;2.78;;;1.25;;
30000;SDS011;16845;48.670;9.000;2023-07-13T16:56:40;2.38;;;1.33;;
30000;SDS011;16845;48.670;9.000;2023-07-13T16:59:09;3.85;;;1.20;;
30000;SDS011;16845;48.670;9.000;2023-07-13T17:01:39;4.47;;;1.40;;
30000;SDS011;16845;48.670;9.000;2023-07-13T17:04:08;2.28;;;1.15;;
30000;SDS011;16845;48.670;9.000;2023-07-13T17:06:35;4.95;;;1.23;;
30000;SDS011;16845;48.670;9.000;2023-07-13T17:09:01;3.27;;;1.97;;
30000;SDS011;16845;48.670;9.000;2023-07-13T17:11:30;9.45;;;1.67;;
30000;SDS011;16845;48.670;9.000;2023-07-13T17:13:56;4.13;;;1.20;;
30000;SDS011;16845;48.670;9.000;2023-07-13T17:16:23;8.37;;;1.63;;
30000;SDS011;16845;48.670;9.000;2023-07-13T17:18:50;4.65;;;1.63;;
30000;SDS011;16845;48.670;9.000;2023-07-13T17:21:16;7.80;;;1.73;;
30000;SDS011;16845;48.670;9.000;2023-07-13T17:23:43;3.03;;;1.45;;
30000;SDS011;16845;48.670;9.000;2023-07-13T17:26:10;5.50;;;1.90;;
30000;SDS011;16845;48.670;9.000;2023-07-13T17:28:38;8.95;;;1.52;;
30000;SDS011;16845;48.670;9.000;2023-07-13T17:31:05;5.88;;;1.77;;
30000;SDS011;16845;48.670;9.000;2023-07-13T17:33:33;4.28;;;1.52;;
30000;SDS011;16845;48.670;9.000;2023-07-13T17:36:01;4.10;;;1.70;;
30000;SDS011;16845;48.670;9.000;2023-07-13T17:38:30;3.28;;;1.48;;
30000;SDS011;16845;48.670;9.000;2023-07-13T17:41:00;3.83;;;1.30;;
30000;SDS011;16845;48.670;9.000;2023-07-13T17:43:26;5.03;;;2.13;;
30000;SDS011;16845;48.670;9.000;2023-07-13T17:45:54;2.53;;;1.80;;
30000;SDS011;16845;48.670;9.000;2023-07-13T17:48:22;2.70;;;1.27;;
30000;SDS011;16845;48.670;9.000;2023-07-13T17:50:50;6.18;;;1.70;;
30000;SDS011;16845;48.670;9.000;2023-07-13T17:53:17;2.83;;;1.23;;
30000;SDS011;16845;48.670;9.000;2023-07-13T17:55:46;6.70;;;1.88;;
30000;SDS011;16845;48.670;9.000;2023-07-13T17:58:13;4.15;;;1.90;;
30000;SDS011;16845;48.670;9.000;2023-07-13T18:00:39;2.20;;;1.50;;
30000;SDS011;16845;48.670;9.000;2023-07-13T18:03:11;6.85;;;1.83;;
30000;SDS011;16845;48.670;9.000;2023-07-13T18:05:40;5.15;;;1.65;;
30000;SDS011;16845;48.670;9.000;2023-07-13T18:08:13;5.13;;;1.30;;
30000;SDS011;16845;48.670;9.000;2023-07-13T18:10:47;4.28;;;1.60;;
30000;SDS011;16845;48.670;9.000;2023-07-13T18:13:13;5.05;;;1.23;;
30000;SDS011;16845;48.670;9.000;2023-07-13T18:15:40;4.37;;;1.57;;
30000;SDS011;16845;48.670;9.000;2023-07-13T18:18:07;3.38;;;1.65;;
30000;SDS011;16845;48.670;9.000;2023-07-13T18:20:38;5.15;;;1.67;;
30000;SDS011;16845;48.670;9.000;2023-07-13T18:23:08;6.50;;;1.55;;
30000;SDS011;16845;48.670;9.000;2023-07-13T18:25:40;5.75;;;1.70;;
30000;SDS011;16845;48.670;9.000;2023-07-13T18:28:07;4.77;;;1.60;;
30000;SDS011;16845;48.670;9.000;2023-07-13T18:30:33;3.17;;;1.52;;
30000;SDS011;16845;48.670;9.000;2023-07-13T18:33:00;1.07;;;0.90;;
30000;SDS011;16845;48.670;9.000;2023-07-13T18:35:27;8.20;;;1.70;;
30000;SDS011;16845;48.670;9.000;2023-07-13T18:37:57;6.05;;;1.58;;
30000;SDS011;16845;48.670;9.000;2023-07-13T18:40:25;4.90;;;1.50;;
30000;SDS011;16845;48.670;9.000;2023-07-13T18:42:52;4.00;;;1.55;;
30000;SDS011;16845;48.670;9.000;2023-07-13T18:45:20;4.43;;;1.92;;
30000;SDS011;16845;48.670;9.000;2023-07-13T18:47:49;6.53;;;2.10;;
30000;SDS011;16845;48.670;9.000;2023-07-13T18:50:20;3.17;;;1.48;;
30000;SDS011;16845;48.670;9.000;2023-07-13T18:52:50;5.35;;;1.58;;
30000;SDS011;16845;48.670;9.000;2023-07-13T18:55:18;5.63;;;1.50;;
30000;SDS011;16845;48.670;9.000;2023-07-13T18:57:46;1.65;;;1.50;;
30000;SDS011;16845;48.670;9.000;2023-07-13T19:00:13;5.25;;;1.50;;
30000;SDS011;16845;48.670;9.000;2023-07-13T19:05:14;2.55;;;1.40;;
30000;SDS011;16845;48.670;9.000;2023-07-13T19:07:42;4.47;;;1.80;;
30000;SDS011;16845;48.670;9.000;2023-07-13T19:10:13;3.30;;;1.45;;
30000;SDS011;16845;48.670;9.000;2023-07-13T19:12:44;4.90;;;1.80;;
30000;SDS011;16845;48.670;9.000;2023-07-13T19:15:19;3.55;;;1.70;;
30000;SDS011;16845;48.670;9.000;2023-07-13T19:17:47;6.93;;;1.77;;
30000;SDS011;16845;48.670;9.000;2023-07-13T19:20:14;2.50;;;1.42;;
30000;SDS011;16845;48.670;9.000;2023-07-13T19:22:42;5.93;;;1.42;;
30000;SDS011;16845;48.670;9.000;2023-07-13T19:27:37;3.20;;;1.90;;
30000;SDS011;16845;48.670;9.000;2023-07-13T19:30:07;3.17;;;1.70;;
30000;SDS011;16845;48.670;9.000;2023-07-13T19:32:36;4.28;;;2.05;;
30000;SDS011;16845;48.670;9.000;2023-07-13T19:35:02;3.03;;;1.83;;
30000;SDS011;16845;48.670;9.000;2023-07-13T19:37:29;4.32;;;1.90;;
30000;SDS011;16845;48.670;9.000;2023-07-13T19:39:56;3.07;;;1.63;;
30000;SDS011;16845;48.670;9.000;2023-07-13T19:42:23;4.43;;;1.73;;
30000;SDS011;16845;48.670;9.000;2023-07-13T19:44:54;2.58;;;1.60;;
30000;SDS011;16845;48.670;9.000;2023-07-13T19:47:23;5.63;;;1.70;;
30000;SDS011;16845;48.670;9.000;2023-07-13T19:49:50;4.18;;;1.73;;
30000;SDS011;16845;48.670;9.000;2023-07-13T19:52:18;3.85;;;2.03;;
30000;SDS011;16845;48.670;9.000;2023-07-13T19:54:47;4.13;;;2.08;;
30000;SDS011;16845;48.670;9.000;2023-07-13T19:57:17;4.00;;;1.80;;
30000;SDS011;16845;48.670;9.000;2023-07-13T19:59:45;6.57;;;1.80;;
30000;SDS011;16845;48.670;9.000;2023-07-13T20:02:12;4.43;;;2.08;;
30000;SDS011;16845;48.670;9.000;2023-07-13T20:04:40;8.37;;;1.93;;
30000;SDS011;16845;48.670;9.000;2023-07-13T20:07:08;4.85;;;1.67;;
30000;SDS011;16845;48.670;9.000;2023-07-13T20:09:39;5.03;;;1.73;;
30000;SDS011;16845;48.670;9.000;2023-07-13T20:12:10;8.63;;;2.30;;
30000;SDS011;16845;48.670;9.000;2023-07-13T20:14:37;5.40;;;1.58;;
30000;SDS011;16845;48.670;9.000;2023-07-13T20:17:09;3.78;;;2.10;;
30000;SDS011;16845;48.670;9.000;2023-07-13T20:19:46;4.25;;;2.47;;
30000;SDS011;16845;48.670;9.000;2023-07-13T20:22:13;6.78;;;2.92;;
30000;SDS011;16845;48.670;9.000;2023-07-13T20:24:40;6.25;;;2.67;;
30000;SDS011;16845;48.670;9.000;2023-07-13T20:27:06;6.88;;;2.70;;
30000;SDS011;16845;48.670;9.000;2023-07-13T20:29:33;8.27;;;3.40;;
30000;SDS011;16845;48.670;9.000;2023-07-13T20:32:00;5.88;;;2.88;;
30000;SDS011;16845;48.670;9.000;2023-07-13T20:34:27;6.05;;;3.38;;
30000;SDS011;16845;48.670;9.000;2023-07-13T20:37:01;7.53;;;2.85;;
30000;SDS011;16845;48.670;9.000;2023-07-13T20:39:27;4.32;;;2.95;;
30000;SDS011;16845;48.670;9.000;2023-07-13T20:41:54;7.78;;;3.47;;
30000;SDS011;16845;48.670;9.000;2023-07-13T20:44:20;9.45;;;3.67;;
30000;SDS011;16845;48.670;9.000;2023-07-13T20:46:47;14.60;;;3.63;;